Nearby METAR Reports

 

EGDR - Culdrose (navy), United Kingdom
Distance from station: S 10mi, 17km
Updated: 01/10/2022 00:20
Mist, Mostly cloudy
Mist, Mostly cloudy
 Wind from W
Wind: W 15 mph , 24 km/h
Temperature: 15°C
Dew Point: 13°C
Humidity: 88%
Barometer: 1004 hPa
Summary: Mist
Clouds: Mostly cloudy
Visibility: 6 miles , 9 km
Cloud details: Mostly cloudy 305 m
Mostly cloudy 3658 m
2022/09/30 23:20 EGDR 302320Z AUTO 26013KT 9000 BR BKN010/// BKN120/// 15/13 Q1004
EGHQ - Newquay, United Kingdom
Distance from station: NE 17mi, 27km
Updated: 01/10/2022 00:20
Mostly cloudy
Mostly cloudy
 Wind from W
Wind: W 20 mph , 31 km/h
Temperature: 15°C
Dew Point: 13°C
Humidity: 88%
Barometer: 1004 hPa
Clouds: Mostly cloudy
Visibility: 6 miles , 10 km
Cloud details: Mostly cloudy 427 m
2022/09/30 23:20 EGHQ 302320Z AUTO 27017KT 9999 BKN014/// 15/13 Q1004
 
EGHC - Lands End, United Kingdom
Distance from station: WSW 22mi, 35km
Updated: 30/09/2022 16:50
NOT Current
Light rain, Drizzle, Fog
Light rain, Drizzle, Fog
 Wind from SW
Wind: SW 21 mph , 33 km/h, Gust: 33 mph , 54 km/h
Temperature: 15°C
Dew Point: 15°C
Humidity: 100%
Barometer: 1002 hPa
Summary: Light rain, Drizzle, Fog
Visibility: 0 mile , 0 km
2022/09/30 15:50 EGHC 301550Z 23018G29KT 0050 -RADZ FG VV/// 15/15 Q1002 RERA REDZ